Latest Weather Observations for Witchcliffe

IDW60801

Issued at 4:02 pm WST Wednesday 2 September 2015 (issued every 30 minutes, with the page automatically refreshed every 10 minutes)

About weather observations | Map of weather stations | Latest weather observations for WA | Other Formats
Station Details ID: 009746 Name: WITCHCLIFFE Lat: -34.03 Lon: 115.10 Height: 80.0 m
Data from the previous 72 hours. | See also: Recent months at Witchcliffe
Date/Time
WST
Temp
°C
App
Temp
°C
Dew
Point
Rel
Hum
%
Delta-T
°C
Wind Press
QNH
hPa
Press
MSL
hPa
Rain
since 9 am
mm
Dir
 
Spd
km/h
Gust
km/h
Spd
kts
Gust
kts
02/04:00pm 13.3 9.8 5.5 59 3.6 SSE 13 22 7 12 1026.1 1026.1 0.0
02/03:30pm 13.4 9.9 5.3 58 3.8 SSE 13 17 7 9 1026.3 1026.3 0.0
02/03:00pm 13.9 10.9 5.8 58 3.8 S 11 17 6 9 1026.2 1026.2 0.0
02/02:30pm 14.2 10.5 6.1 58 3.9 SE 15 22 8 12 1026.2 1026.2 0.0
02/02:00pm 14.0 10.8 4.9 54 4.2 ESE 11 20 6 11 1026.2 1026.2 0.0
02/01:30pm 14.6 11.2 5.9 56 4.2 SE 13 20 7 11 1026.4 1026.4 0.0
02/01:00pm 14.1 10.7 6.0 58 3.9 SE 13 24 7 13 1026.7 1026.7 0.0
02/12:30pm 13.5 9.6 5.2 57 3.9 ESE 15 24 8 13 1027.1 1027.1 0.0
02/12:00pm 13.5 9.9 4.9 56 4.0 SE 13 20 7 11 1027.5 1027.5 0.0
02/11:30am 13.0 9.9 3.4 52 4.3 ESE 9 17 5 9 1028.0 1028.0 0.0
02/11:00am 13.0 10.3 5.7 61 3.4 E 9 15 5 8 1028.3 1028.3 0.0
02/10:30am 12.3 10.6 5.9 65 3.0 ESE 4 11 2 6 1028.5 1028.5 0.0
02/10:00am 11.4 9.0 5.1 65 2.9 E 7 11 4 6 1028.7 1028.7 0.0
02/09:30am 10.4 8.5 6.5 77 1.8 E 6 11 3 6 1028.9 1028.9 0.0
02/09:00am 9.6 8.2 8.8 95 0.4 ENE 6 11 3 6 1028.9 1028.9 0.6
02/08:30am 8.9 8.6 8.8 99 0.0 CALM 0 0 0 0 1028.8 1028.8 0.6
02/08:00am 8.1 7.6 8.0 99 0.0 CALM 0 0 0 0 1028.6 1028.6 0.6
02/07:30am 7.6 7.0 7.5 99 0.0 CALM 0 0 0 0 1028.2 1028.2 0.6
02/07:00am 7.1 6.4 7.0 99 0.0 CALM 0 0 0 0 1027.9 1027.9 0.6
02/06:30am 6.8 6.0 6.7 99 0.0 CALM 0 0 0 0 1027.6 1027.6 0.6
02/06:00am 6.5 5.7 6.4 99 0.0 CALM 0 0 0 0 1027.4 1027.4 0.6
02/05:30am 6.5 5.7 6.4 99 0.0 CALM 0 0 0 0 1027.3 1027.3 0.6
02/05:00am 6.3 5.4 6.2 99 0.0 CALM 0 0 0 0 1027.0 1027.0 0.6
02/04:30am 5.7 4.7 5.6 99 0.0 CALM 0 0 0 0 1026.8 1026.8 0.6
02/04:00am 5.2 4.1 5.1 99 0.0 CALM 0 0 0 0 1026.7 1026.7 0.6
02/03:30am 4.3 3.0 4.2 99 0.0 CALM 0 0 0 0 1026.8 1026.8 0.6
02/03:00am 5.1 4.0 5.0 99 0.0 CALM 0 0 0 0 1026.8 1026.8 0.6
02/02:30am 5.7 4.7 5.6 99 0.0 CALM 0 0 0 0 1027.0 1027.0 0.6
02/02:00am 6.1 5.2 6.0 99 0.0 CALM 0 0 0 0 1027.1 1027.1 0.6
02/01:30am 5.7 4.7 5.6 99 0.0 CALM 0 0 0 0 1027.2 1027.2 0.6
02/01:00am 5.3 4.2 5.0 98 0.1 CALM 0 0 0 0 1027.2 1027.2 0.6
02/12:30am 5.1 3.9 4.8 98 0.1 CALM 0 0 0 0 1026.9 1026.9 0.6
02/12:00am 4.1 2.7 3.7 97 0.2 CALM 0 0 0 0 1027.0 1027.0 0.6
 
Date/Time
WST
Temp
°C
App
Temp
°C
Dew
Point
Rel
Hum
%
Delta-T
°C
Wind Press
QNH
hPa
Press
MSL
hPa
Rain
since 9 am
mm
Dir
 
Spd
km/h
Gust
km/h
Spd
kts
Gust
kts
01/11:30pm 2.8 1.1 1.9 94 0.4 CALM 0 0 0 0 1027.2 1027.2 0.6
01/11:00pm 3.2 1.6 2.3 94 0.4 CALM 0 0 0 0 1027.5 1027.5 0.6
01/10:30pm 3.7 1.4 2.7 93 0.4 NNW 4 7 2 4 1027.4 1027.4 0.6
01/10:00pm 3.6 2.0 2.3 91 0.5 CALM 0 0 0 0 1027.3 1027.3 0.6
01/09:30pm 3.8 2.2 2.3 90 0.6 CALM 0 0 0 0 1027.2 1027.2 0.6
01/09:00pm 4.1 2.4 2.1 87 0.8 CALM 0 0 0 0 1027.1 1027.1 0.6
01/08:30pm 4.8 3.2 2.3 84 1.0 CALM 0 0 0 0 1026.5 1026.5 0.6
01/08:00pm 5.9 4.4 3.2 83 1.1 CALM 0 0 0 0 1026.2 1026.2 0.6
01/07:30pm 6.4 4.8 2.5 76 1.6 CALM 0 0 0 0 1026.0 1026.0 0.6
01/07:00pm 7.6 6.1 2.9 72 2.0 CALM 0 0 0 0 1025.8 1025.8 0.6
01/06:30pm 8.4 5.6 3.3 70 2.2 S 7 9 4 5 1025.6 1025.6 0.6
01/06:00pm 9.0 5.9 3.4 68 2.4 SSE 9 13 5 7 1025.6 1025.6 0.6
01/05:30pm 10.7 6.2 4.0 63 3.0 SSE 17 24 9 13 1025.4 1025.4 0.6
01/05:00pm 11.8 7.4 4.5 61 3.3 SSE 17 28 9 15 1025.1 1025.1 0.6
01/04:30pm 11.9 6.8 4.2 59 3.5 SSE 20 30 11 16 1024.7 1024.7 0.6
01/04:00pm 12.7 7.8 5.1 60 3.5 SSE 20 32 11 17 1024.5 1024.5 0.6
01/03:30pm 13.1 7.3 4.3 55 4.0 S 24 33 13 18 1024.3 1024.3 0.6
01/03:00pm 12.6 7.3 5.1 60 3.5 SSE 22 35 12 19 1024.2 1024.2 0.4
01/02:30pm 11.9 7.1 5.5 65 3.0 S 20 33 11 18 1024.1 1024.1 0.4
01/02:00pm 12.2 7.1 5.8 65 3.0 S 22 35 12 19 1023.9 1023.9 0.4
01/01:30pm 12.1 6.0 5.0 62 3.3 SSE 26 35 14 19 1023.8 1023.8 0.4
01/01:00pm 11.7 6.8 6.8 72 2.3 SSW 22 35 12 19 1024.1 1024.1 0.4
01/12:30pm 10.3 4.6 6.6 78 1.7 S 26 43 14 23 1024.5 1024.5 0.4
01/12:00pm 13.5 8.7 7.3 66 3.0 SSE 22 32 12 17 1024.2 1024.2 0.4
01/11:30am 10.7 5.4 6.8 77 1.8 SSE 24 39 13 21 1024.5 1024.5 0.4
01/11:00am 11.8 7.2 6.3 69 2.6 SSW 20 35 11 19 1024.4 1024.4 0.2
01/10:30am 10.7 6.0 6.1 73 2.1 SSE 20 32 11 17 1024.3 1024.3 0.2
01/10:00am 10.8 6.5 6.9 77 1.8 S 19 30 10 16 1024.5 1024.5 0.2
01/09:30am 10.7 6.2 6.1 73 2.1 SSE 19 28 10 15 1024.1 1024.1 0.2
01/09:00am 11.5 6.2 4.9 64 3.0 S 22 33 12 18 1023.8 1023.8 13.8
01/08:30am 10.2 6.1 4.6 68 2.5 S 15 30 8 16 1023.3 1023.3 13.8
01/08:00am 9.4 5.5 3.4 66 2.6 S 13 20 7 11 1023.2 1023.2 13.8
01/07:30am 9.2 5.3 3.6 68 2.4 S 13 22 7 12 1022.8 1022.8 13.8
01/07:00am 8.6 3.3 3.0 68 2.4 SSW 20 35 11 19 1022.5 1022.5 13.8
01/06:30am 8.3 2.9 2.3 66 2.5 S 20 32 11 17 1022.0 1022.0 13.8
01/06:00am 8.2 3.6 3.5 72 2.0 SSW 17 33 9 18 1021.7 1021.7 13.8
01/05:30am 8.2 3.4 2.7 68 2.3 S 17 22 9 12 1021.4 1021.4 13.8
01/05:00am 8.1 3.2 1.9 65 2.6 S 17 26 9 14 1021.1 1021.1 13.8
01/04:30am 8.0 3.1 1.8 65 2.6 S 17 26 9 14 1020.8 1020.8 13.8
01/04:00am 7.6 3.3 3.5 75 1.7 S 15 22 8 12 1020.8 1020.8 13.8
01/03:30am 7.7 2.9 2.8 71 2.1 S 17 32 9 17 1020.7 1020.7 13.8
01/03:00am 8.2 3.2 1.6 63 2.7 S 17 26 9 14 1020.4 1020.4 13.8
01/02:30am 8.2 3.2 1.6 63 2.7 S 17 30 9 16 1020.5 1020.5 13.8
01/02:00am 7.9 3.2 3.2 72 2.0 SSW 17 28 9 15 1020.6 1020.6 13.8
01/01:30am 7.9 2.8 2.8 70 2.2 SSW 19 35 10 19 1020.7 1020.7 13.8
01/01:00am 7.7 3.2 2.0 67 2.3 S 15 28 8 15 1020.7 1020.7 13.6
01/12:30am 7.9 2.5 1.5 64 2.6 S 19 28 10 15 1020.4 1020.4 13.6
01/12:00am 8.3 3.6 1.2 61 2.9 S 15 22 8 12 1020.2 1020.2 13.6
 
Date/Time
WST
Temp
°C
App
Temp
°C
Dew
Point
Rel
Hum
%
Delta-T
°C
Wind Press
QNH
hPa
Press
MSL
hPa
Rain
since 9 am
mm
Dir
 
Spd
km/h
Gust
km/h
Spd
kts
Gust
kts
31/11:30pm 8.3 2.7 1.0 60 3.0 SSW 20 33 11 18 1020.2 1020.2 13.6
31/11:00pm 7.9 3.1 2.4 68 2.3 S 17 28 9 15 1020.1 1020.1 13.6
31/10:30pm 8.4 3.1 1.6 62 2.8 SSW 19 28 10 15 1019.9 1020.0 13.6
31/10:00pm 8.2 3.1 3.9 74 1.9 S 20 33 11 18 1019.9 1020.0 13.6
31/09:30pm 9.2 3.2 3.4 67 2.5 SSW 24 35 13 19 1019.6 1019.7 13.6
31/09:00pm 8.6 3.5 4.0 73 2.0 SSW 20 32 11 17 1019.5 1019.6 13.6
31/08:30pm 9.1 4.2 4.1 71 2.2 SSW 19 26 10 14 1019.4 1019.5 13.4
31/08:00pm 9.3 4.4 4.1 70 2.3 SSW 19 30 10 16 1019.0 1019.1 13.4
31/07:30pm 8.7 4.4 5.3 79 1.5 S 17 22 9 12 1019.0 1019.1 13.4
31/07:00pm 9.1 2.7 5.1 76 1.8 S 28 46 15 25 1018.5 1018.6 13.2
31/06:52pm 9.1 2.6 4.5 73 2.0 SSW 28 48 15 26 1018.4 1018.5 13.2
31/06:30pm 9.6 4.3 3.1 64 2.8 SSW 20 41 11 22 1018.1 1018.2 13.0
31/06:00pm 10.1 5.0 4.3 67 2.6 SSW 20 33 11 18 1017.7 1017.8 13.0
31/05:30pm 10.3 5.1 3.8 64 2.9 SSW 20 33 11 18 1017.5 1017.6 13.0
31/05:00pm 10.6 4.6 5.2 69 2.5 SW 26 43 14 23 1017.4 1017.5 13.0
31/04:30pm 11.6 6.0 5.3 65 2.9 SSW 24 35 13 19 1017.0 1017.0 13.0
31/04:09pm 11.2 4.9 5.7 69 2.6 SSW 28 46 15 25 1016.7 1016.7 13.0
31/04:00pm 11.1 6.4 6.0 71 2.4 SSW 20 35 11 19 1016.7 1016.7 13.0
31/03:30pm 11.1 6.5 6.6 74 2.1 SSW 20 32 11 17 1016.6 1016.6 12.8
31/03:00pm 10.7 5.9 7.2 79 1.7 SSW 22 43 12 23 1016.2 1016.2 12.8
31/02:30pm 11.6 8.5 9.0 84 1.3 SW 15 22 8 12 1015.8 1015.8 12.2
31/02:00pm 10.3 5.0 6.6 78 1.7 SSW 24 37 13 20 1016.0 1016.0 11.6
31/01:49pm 12.7 7.1 8.6 76 2.1 SW 28 44 15 24 1015.4 1015.4 10.4
31/01:30pm 11.6 8.7 9.7 88 1.0 SSW 15 26 8 14 1015.2 1015.2 10.4
31/01:01pm 10.6 4.3 5.8 72 2.2 SW 28 52 15 28 1015.5 1015.5 9.8
31/01:00pm 10.9 5.4 5.7 70 2.4 SW 24 52 13 28 1015.4 1015.4 9.6
31/12:30pm 12.8 9.8 9.1 78 1.9 SW 15 20 8 11 1015.4 1015.4 9.6
31/12:00pm 11.4 9.6 9.3 87 1.1 WSW 9 15 5 8 1015.6 1015.6 9.6
31/11:30am 9.7 5.5 7.6 87 1.0 WSW 19 26 10 14 1016.7 1016.7 8.6
31/11:00am 11.3 8.9 9.9 91 0.7 SW 13 19 7 10 1016.2 1016.2 6.2
31/10:30am 10.8 8.7 9.6 92 0.6 WSW 11 20 6 11 1016.0 1016.0 5.2
31/10:00am 10.8 7.4 9.2 90 0.8 WSW 17 26 9 14 1015.7 1015.7 3.2
31/09:30am 11.2 8.0 9.9 92 0.7 W 17 30 9 16 1015.9 1015.9 2.2
31/09:00am 11.3 7.9 9.0 86 1.1 WNW 17 26 9 14 1016.0 1016.0 3.2
31/08:38am 12.2 6.5 8.3 77 1.9 W 28 50 15 27 1016.1 1016.1 2.6
31/08:30am 12.9 9.6 9.4 79 1.8 WNW 17 33 9 18 1015.9 1015.9 2.4
31/08:00am 13.1 9.8 9.7 80 1.7 NW 17 28 9 15 1015.7 1015.7 2.4
31/07:30am 11.5 8.9 9.2 86 1.2 NW 13 20 7 11 1015.7 1015.7 2.4
31/07:00am 11.0 8.5 9.8 92 0.6 WNW 13 22 7 12 1016.0 1016.0 2.4
31/06:30am 9.5 7.3 7.9 90 0.8 N 9 11 5 6 1015.8 1015.8 2.2
31/06:00am 10.3 7.8 8.2 87 1.0 NNW 11 15 6 8 1016.1 1016.1 2.2
31/05:30am 10.8 8.6 9.4 91 0.7 NW 11 19 6 10 1016.3 1016.3 2.0
31/05:00am 9.5 9.1 8.1 91 0.7 CALM 0 0 0 0 1016.4 1016.4 2.0
31/04:30am 10.2 8.9 9.1 93 0.5 WNW 6 11 3 6 1016.8 1016.8 2.0
31/04:00am 9.2 7.3 9.1 99 0.0 NNW 9 20 5 11 1017.2 1017.2 2.0
31/03:30am 8.6 6.9 8.5 99 0.0 NNW 7 11 4 6 1017.2 1017.2 2.0
31/03:00am 9.3 7.4 9.2 99 0.0 N 9 15 5 8 1017.7 1017.8 1.8
31/02:30am 9.2 6.5 9.1 99 0.0 NNW 13 24 7 13 1018.3 1018.4 1.8
31/02:00am 8.0 5.8 7.9 99 0.0 N 9 13 5 7 1018.2 1018.3 1.8
31/01:30am 8.5 6.0 8.4 99 0.0 N 11 13 6 7 1018.6 1018.7 1.8
31/01:00am 8.9 7.9 8.8 99 0.0 NNW 4 9 2 5 1018.9 1019.0 1.8
31/12:30am 8.9 8.6 8.8 99 0.0 CALM 0 0 0 0 1019.1 1019.2 1.6
31/12:00am 9.1 6.8 9.0 99 0.0 N 11 17 6 9 1019.7 1019.8 1.6
 
Date/Time
WST
Temp
°C
App
Temp
°C
Dew
Point
Rel
Hum
%
Delta-T
°C
Wind Press
QNH
hPa
Press
MSL
hPa
Rain
since 9 am
mm
Dir
 
Spd
km/h
Gust
km/h
Spd
kts
Gust
kts
30/11:30pm 8.8 8.1 8.7 99 0.0 NNW 2 9 1 5 1019.8 1019.9 1.6
30/11:00pm 8.1 7.5 7.5 96 0.3 CALM 0 0 0 0 1020.3 1020.3 1.2
30/10:30pm 8.5 7.9 7.6 94 0.4 CALM 0 0 0 0 1020.4 1020.4 1.0
30/10:00pm 9.6 7.2 8.8 95 0.4 N 11 17 6 9 1020.7 1020.7 1.0
30/09:30pm 9.2 6.7 8.3 94 0.4 NNE 11 17 6 9 1021.1 1021.1 0.8
30/09:00pm 8.3 6.8 6.9 91 0.7 N 4 7 2 4 1021.1 1021.1 0.2
30/08:30pm 9.0 8.3 7.1 88 0.9 CALM 0 0 0 0 1021.0 1021.0 0.2
30/08:00pm 9.6 8.9 7.0 84 1.2 CALM 0 0 0 0 1021.1 1021.1 0.2
30/07:30pm 10.2 7.4 7.1 81 1.5 NNW 11 17 6 9 1021.0 1021.0 0.2
30/07:00pm 9.5 7.6 6.6 82 1.4 N 6 7 3 4 1020.7 1020.7 0.0
30/06:30pm 9.6 7.3 5.6 76 1.8 NNW 7 9 4 5 1020.5 1020.5 0.0
30/06:00pm 11.1 10.1 5.8 70 2.5 CALM 0 0 0 0 1020.4 1020.4 0.0
30/05:30pm 12.1 10.3 5.5 64 3.1 WNW 4 7 2 4 1020.3 1020.3 0.0
30/05:00pm 12.4 9.5 4.6 59 3.6 W 9 13 5 7 1020.2 1020.2 0.0
30/04:30pm 13.9 10.1 3.9 51 4.6 W 13 20 7 11 1020.1 1020.1 0.0

Other Formats:

Comma delimited format used in spreadsheet applications
http://www.bom.gov.au/fwo/IDW60801/IDW60801.95641.axf

JavaScript Object Notation format (JSON) in row-major order
http://www.bom.gov.au/fwo/IDW60801/IDW60801.95641.json